• Join FlightAware (Why Join?)
  • Login
  • US Flag 
03:49AM EDT


 

Airport Tracker/Info


-or-


 

Live Flight TrackerFlight Track Log ✈ DAL268 ✈ 29-Oct-2013 ✈ KSFO - KJFK

Flight Track Log - Related Links

Times and Time Zones

All times are in EDT time to prevent confusion due to time zone crossing. See the DAL268 flight status page for this flight to view local times or setup timezone preferences in your user account.

Time Position Orientation Groundspeed Altitude Reporting Facility
EDT Latitude Longitude Course Direction KTS MPH feet Rate Location/Type
02:41PM 37.6333 -122.3500 72° East 157 181 1,500  Level Northern Cal TRACON
02:42PM 37.6667 -122.3000 50° Northeast 224 258 3,200 2,640 Climbing Northern Cal TRACON
02:43PM 37.7333 -122.2333 38° Northeast 266 306 6,800 3,480 Climbing Northern Cal TRACON
02:44PM 37.7118 -122.0540 63° Northeast  Level FlightAware Approximate
02:44PM 37.7667 -122.1500 63° Northeast 277 319 10,200  Level Northern Cal TRACON
02:45PM 37.7692 -121.9016 65° Northeast  Level FlightAware Approximate
02:46PM 37.8181 -121.7458 67° East  Level FlightAware Approximate
02:46PM 37.8239 -121.9486 70° East 369 425 13,100  Level Oakland Center
02:47PM 37.8728 -121.5922 72° East  Level FlightAware Approximate
02:47PM 37.8603 -121.8142 71° East 400 460 15,600  Level Oakland Center
02:48PM 37.8978 -121.6750 71° East 416 479 17,800 2,040 Climbing Oakland Center
02:49PM 37.9364 -121.5289 71° East 434 499 19,900 2,100 Climbing Oakland Center
02:50PM 37.9814 -121.3619 71° East 447 514 22,100 2,040 Climbing Oakland Center
02:51PM 38.0200 -121.2081 72° East 459 528 24,100 1,740 Climbing Oakland Center
02:52PM 38.0503 -121.0483 76° East 467 537 25,700 1,860 Climbing Oakland Center
02:53PM 38.0817 -120.8889 76° East 470 541 27,900 1,980 Climbing Oakland Center
02:54PM 38.1092 -120.7322 77° East 461 531 29,800 1,620 Climbing Oakland Center
02:55PM 38.1436 -120.5436 77° East 460 529 31,300 1,380 Climbing Oakland Center
02:56PM 38.1733 -120.3825 77° East 468 539 32,700 1,620 Climbing Oakland Center
02:57PM 38.2008 -120.2228 78° East 467 537 34,600 1,020 Climbing Oakland Center
02:59PM 38.2300 -120.0672 77° East 455 524 34,900 120 Climbing Oakland Center
03:00PM 38.2564 -119.9100 78° East 457 526 34,900  Level Oakland Center
03:01PM 38.2853 -119.7519 77° East 460 529 34,900  Level Oakland Center
03:02PM 38.3125 -119.5931 78° East 461 531 34,900  Level Oakland Center
03:03PM 38.3436 -119.4069 78° East 465 535 34,900  Level Oakland Center
03:04PM 38.3708 -119.2489 78° East 461 531 34,900  Level Oakland Center
03:05PM 38.3986 -119.0883 78° East 465 535 34,900  Level Oakland Center
03:06PM 38.4247 -118.9272 78° East 468 539 34,900 60 Level Oakland Center
03:07PM 38.4517 -118.7678 78° East 464 534 35,100 660 Climbing Oakland Center
03:08PM 38.4775 -118.6092 78° East 460 529 36,300 840 Climbing Oakland Center
03:09PM 38.5036 -118.4464 78° East 467 537 36,900 240 Climbing Oakland Center
03:10PM 38.5306 -118.2836 78° East 471 542 36,900  Level Oakland Center
03:11PM 38.5614 -118.0908 78° East 475 547 36,900  Level Oakland Center
03:12PM 38.5872 -117.9225 79° East 480 552 36,900  Level Oakland Center
03:13PM 38.6139 -117.7544 78° East 481 554 36,900  Level Oakland Center
03:14PM 38.6400 -117.5831 79° East 485 558 36,900  Level Oakland Center
03:15PM 38.6656 -117.4131 79° East 485 558 36,900  Level Oakland Center
03:17PM 38.7161 -117.0756 79° East 481 554 36,900  Level Oakland Center
03:18PM 38.7458 -116.8722 79° East 482 555 36,900  Level Salt Lake Center
03:19PM 38.7694 -116.7039 80° East 480 552 36,900  Level Salt Lake Center
03:20PM 38.7903 -116.5703 79° East 477 549 36,900  Level Oakland Center
03:21PM 38.8186 -116.3683 80° East 478 550 36,900  Level Oakland Center
03:22PM 38.8428 -116.2014 79° East 476 548 36,900  Level Oakland Center
03:23PM 38.8667 -116.0306 80° East 475 547 36,900  Level Oakland Center
03:24PM 38.8883 -115.8697 80° East 471 542 36,900  Level Salt Lake Center
03:25PM 38.9158 -115.6697 80° East 472 543 36,900  Level Salt Lake Center
03:26PM 38.9381 -115.5042 80° East 473 544 36,900  Level Salt Lake Center
03:27PM 38.9619 -115.3272 80° East 475 547 36,900  Level Salt Lake Center
03:28PM 38.9856 -115.1578 80° East 481 554 36,900  Level Salt Lake Center
03:29PM 39.0075 -114.9903 80° East 478 550 36,900  Level Salt Lake Center
03:30PM 39.0289 -114.8233 81° East 476 548 36,900  Level Salt Lake Center
03:31PM 39.0511 -114.6533 80° East 479 551 36,900  Level Salt Lake Center
03:32PM 39.0717 -114.4850 81° East 480 552 36,900  Level Salt Lake Center
03:33PM 39.0928 -114.3150 81° East 480 552 36,900  Level Salt Lake Center
03:35PM 39.1186 -114.1114 81° East 481 554 36,900  Level Salt Lake Center
03:36PM 39.1397 -113.9397 81° East 485 558 36,900  Level Salt Lake Center
03:37PM 39.1603 -113.7678 81° East 486 559 36,900  Level Salt Lake Center
03:38PM 39.1803 -113.5967 81° East 484 557 36,900  Level Salt Lake Center
03:39PM 39.2000 -113.4239 82° East 486 559 36,900  Level Salt Lake Center
03:40PM 39.2200 -113.2500 82° East 489 563 36,900  Level Salt Lake Center
03:41PM 39.2394 -113.0775 82° East 488 562 36,900  Level Salt Lake Center
03:42PM 39.2592 -112.9028 82° East 491 565 36,900  Level Salt Lake Center
03:43PM 39.2814 -112.6908 82° East 494 568 36,900  Level Salt Lake Center
03:44PM 39.3039 -112.5142 81° East 497 572 36,900  Level Salt Lake Center
03:45PM 39.3342 -112.3400 77° East 501 577 36,900  Level Salt Lake Center
03:46PM 39.3661 -112.1650 77° East 503 579 36,900  Level Salt Lake Center
03:47PM 39.3983 -111.9886 77° East 505 581 36,900  Level Salt Lake Center
03:48PM 39.4311 -111.8103 77° East 511 588 36,900  Level Salt Lake Center
03:49PM 39.4700 -111.5983 77° East 508 585 36,900  Level Salt Lake Center
03:50PM 39.5028 -111.4211 76° East 508 585 36,900  Level Salt Lake Center
03:51PM 39.5325 -111.2444 78° East 515 593 36,900  Level Salt Lake Center
03:52PM 39.5686 -111.0431 77° East 514 592 36,900  Level Salt Lake Center
03:53PM 39.5989 -110.8694 77° East 516 594 36,900  Level Salt Lake Center
03:54PM 39.6300 -110.6950 77° East 518 596 36,900  Level Salt Lake Center
03:55PM 39.6644 -110.4903 78° East 519 597 37,000  Climbing Salt Lake Center
03:56PM 39.6944 -110.3142 77° East 522 601 37,000  Level Salt Lake Center
03:57PM 39.7286 -110.1086 78° East 522 601 37,000  Level Salt Lake Center
03:58PM 39.7572 -109.9303 78° East 525 604 37,000  Level Salt Lake Center
03:59PM 39.7911 -109.7228 78° East 526 605 37,000  Level Salt Lake Center
04:00PM 39.8192 -109.5433 78° East 528 608 37,000  Level Salt Lake Center
04:01PM 39.8483 -109.3650 78° East 526 605 37,000  Level Salt Lake Center
04:02PM 39.8817 -109.1544 78° East 528 608 37,000  Level Salt Lake Center
04:03PM 39.9131 -108.9725 77° East 533 613 37,000  Level Salt Lake Center
04:04PM 39.9703 -108.7992 67° East 538 619 37,000  Level Salt Lake Center
04:05PM 40.0328 -108.5942 68° East 540 621 37,000  Level Salt Lake Center
04:06PM 40.0831 -108.4161 70° East 542 624 37,000  Level Salt Lake Center
04:07PM 40.1414 -108.2092 70° East 543 625 37,000  Level Salt Lake Center
04:08PM 40.1903 -108.0328 70° East 540 621 37,000  Level Salt Lake Center
04:09PM 40.2406 -107.8539 70° East 544 626 37,000  Level Salt Lake Center
04:11PM 40.3275 -107.5569 69° East 547 629 37,000  Level Denver Center
04:12PM 40.3797 -107.3778 69° East 549 632 37,000  Level Denver Center
04:13PM 40.4300 -107.1986 70° East 547 629 37,000  Level Denver Center
04:14PM 40.4886 -106.9939 69° East 548 631 37,000  Level Denver Center
04:15PM 40.5425 -106.8044 69° East 549 632 37,000  Level Denver Center
04:16PM 40.5958 -106.6156 70° East 548 631 37,000  Level Denver Center
04:17PM 40.6514 -106.4203 69° East 547 629 37,000  Level Denver Center
04:18PM 40.7092 -106.2108 70° East 545 627 37,000  Level Denver Center
04:19PM 40.7514 -106.0483 71° East 544 626 37,000  Level Denver Center
04:20PM 40.8119 -105.8231 70° East 543 625 37,000  Level Denver Center
04:21PM 40.8633 -105.6342 70° East 544 626 37,000  Level Denver Center
04:22PM 40.9139 -105.4428 71° East 548 631 37,000  Level Denver Center
04:23PM 40.9647 -105.2522 70° East 549 632 37,000  Level Denver Center
04:24PM 41.0153 -105.0611 71° East 548 631 37,000  Level Denver Center
04:25PM 41.0706 -104.8483 71° East 548 631 37,000  Level Denver Center
04:26PM 41.1181 -104.6597 71° East 558 642 37,000  Level Denver Center
04:27PM 41.1728 -104.4481 71° East 552 635 37,000  Level Denver Center
04:28PM 41.2197 -104.2625 71° East 554 638 37,000  Level Denver Center
04:29PM 41.2736 -104.0478 71° East 552 635 37,000  Level Denver Center
04:31PM 41.3203 -103.8639 71° East 553 636 37,000  Level Denver Center
04:32PM 41.3728 -103.6475 72° East 553 636 37,000  Level Denver Center
04:33PM 41.4189 -103.4633 71° East 552 635 37,000  Level Denver Center
04:34PM 41.4711 -103.2469 72° East 551 634 37,000  Level Denver Center
04:35PM 41.5161 -103.0622 72° East 551 634 37,000  Level Denver Center
04:36PM 41.5678 -102.8461 72° East 550 633 37,000  Level Denver Center
04:37PM 41.6128 -102.6597 72° East 552 635 37,000  Level Denver Center
04:38PM 41.6592 -102.4589 73° East 550 633 37,000  Level Denver Center
04:39PM 41.7103 -102.2400 73° East 551 634 37,000  Level Denver Center
04:40PM 41.7550 -102.0508 72° East 554 638 37,000  Level Denver Center
04:41PM 41.7975 -101.8619 73° East 554 638 37,000  Level Denver Center
04:42PM 41.8475 -101.6428 73° East 550 633 37,000  Level Denver Center
04:43PM 41.8908 -101.4508 73° East 557 641 37,000  Level Denver Center
04:44PM 41.9397 -101.2308 73° East 553 636 37,000  Level Denver Center
04:45PM 41.9828 -101.0383 73° East 557 641 37,000  Level Denver Center
04:46PM 42.0314 -100.8153 74° East 557 641 37,000  Level Denver Center
04:47PM 42.0725 -100.6256 74° East 553 636 37,000  Level Denver Center
04:48PM 42.1197 -100.3992 74° East 559 643 37,000  Level Denver Center
04:49PM 42.1514 -100.2500 74° East 559 643 37,000  Level Minneapolis Center
04:50PM 42.2019 -100.0133 74° East 559 643 37,000  Level Denver Center
04:51PM 42.2486 -99.7847 75° East 563 648 37,000  Level Denver Center
04:52PM 42.2886 -99.5961 74° East 565 650 37,000  Level Denver Center
04:53PM 42.3306 -99.3922 74° East 563 648 37,000  Level Denver Center
04:54PM 42.3794 -99.1428 75° East 567 652 37,000  Level Denver Center
04:55PM 42.4139 -98.9806 74° East 566 651 37,000  Level Minneapolis Center
04:56PM 42.4533 -98.7747 75° East 564 649 37,000  Level Minneapolis Center
04:57PM 42.4814 -98.5225 81° East 565 650 37,000  Level Minneapolis Center
04:58PM 42.4894 -98.3117 87° East 559 643 37,000  Level Minneapolis Center
04:59PM 42.4989 -98.0997 86° East 562 647 37,000  Level Minneapolis Center
05:00PM 42.5081 -97.8883 87° East 561 646 37,000  Level Minneapolis Center
05:01PM 42.5186 -97.6553 86° East 562 647 37,000  Level Minneapolis Center
05:02PM 42.5283 -97.4436 86° East 563 648 37,000  Level Minneapolis Center
05:04PM 42.5408 -97.2317 85° East 563 648 37,000  Level Minneapolis Center
05:05PM 42.5517 -97.0194 86° East 563 648 37,000  Level Minneapolis Center
05:06PM 42.5628 -96.8067 86° East 564 649 37,000  Level Minneapolis Center
05:07PM 42.5722 -96.5936 86° East 564 649 37,000  Level Minneapolis Center
05:08PM 42.5833 -96.3367 87° East 566 651 37,000  Level Minneapolis Center
05:09PM 42.5933 -96.1228 86° East 565 650 37,000  Level Minneapolis Center
05:10PM 42.6019 -95.9083 87° East 568 654 37,000  Level Minneapolis Center
05:11PM 42.6106 -95.6981 87° East 560 644 37,000  Level Minneapolis Center
05:12PM 42.6183 -95.4867 87° East 560 644 37,000  Level Minneapolis Center
05:13PM 42.6267 -95.2736 87° East 561 646 37,000  Level Minneapolis Center
05:14PM 42.6339 -95.0625 87° East 560 644 37,000  Level Minneapolis Center
05:15PM 42.6422 -94.8103 87° East 557 641 37,000  Level Minneapolis Center
05:16PM 42.6481 -94.5967 88° East 564 649 37,000  Level Minneapolis Center
05:17PM 42.6525 -94.3906 88° East 564 649 37,000  Level Minneapolis Center
05:18PM 42.6586 -94.1822 88° East 560 644 37,000  Level Minneapolis Center
05:19PM 42.6642 -93.9725 88° East 561 646 37,000  Level Minneapolis Center
05:20PM 42.6686 -93.7183 89° East 565 650 37,000  Level Minneapolis Center
05:21PM 42.6742 -93.5089 88° East 562 647 37,000  Level Minneapolis Center
05:22PM 42.6789 -93.2986 88° East 562 647 37,000  Level Minneapolis Center
05:23PM 42.6814 -93.0889 89° East 561 646 37,000  Level Minneapolis Center
05:24PM 42.6844 -92.8778 89° East 561 646 37,000  Level Chicago Center
05:25PM 42.6875 -92.6683 89° East 561 646 37,000  Level Chicago Center
05:26PM 42.6903 -92.4583 89° East 561 646 37,000  Level Chicago Center
05:27PM 42.6922 -92.2489 89° East 562 647 37,000  Level Chicago Center
05:28PM 42.6944 -92.0394 89° East 562 647 37,000  Level Chicago Center
05:29PM 42.6958 -91.7906 89° East 558 642 37,000  Level Chicago Center
05:30PM 42.6964 -91.5656 90° East 561 646 37,000  Level Chicago Center
05:31PM 42.6978 -91.3417 89° East 565 650 37,000  Level Chicago Center
05:32PM 42.6978 -91.1311 90° East 566 651 37,000  Level Chicago Center
05:33PM 42.6981 -90.9228 90° East 561 646 37,000  Level Chicago Center
05:34PM 42.6967 -90.7114 90° East 563 648 37,000  Level Chicago Center
05:35PM 42.6958 -90.5000 90° East 567 652 37,000  Level Chicago Center
05:36PM 42.6936 -90.2475 91° East 564 649 37,000  Level Chicago Center
05:38PM 42.6928 -90.0350 90° East 566 651 37,000  Level Chicago Center
05:39PM 42.6897 -89.8253 91° East 562 647 37,000  Level Chicago Center
05:40PM 42.6869 -89.6142 91° East 565 650 37,000  Level Chicago Center
05:41PM 42.6836 -89.4036 91° East 563 648 37,000  Level Chicago Center
05:42PM 42.6789 -89.1508 91° East 562 647 37,000  Level Chicago Center
05:43PM 42.6761 -88.9392 91° East 564 649 37,000 360 Level Chicago Center
05:44PM 42.6706 -88.7103 92° East 566 651 37,800 960 Climbing Chicago Center
05:45PM 42.6650 -88.5000 92° East 560 644 39,000 540 Climbing Chicago Center
05:46PM 42.6592 -88.2922 92° East 554 638 39,000  Level Chicago Center
05:47PM 42.6544 -88.0831 92° East 555 639 39,000  Level Chicago Center
05:48PM 42.6475 -87.8742 93° East 555 639 39,000  Level Chicago Center
05:49PM 42.6408 -87.6536 92° East 560 644 39,000  Level Chicago Center
05:50PM 42.6342 -87.4431 92° East 559 643 39,000  Level Chicago Center
05:51PM 42.6253 -87.1917 93° East 559 643 39,000  Level Chicago Center
05:52PM 42.6175 -86.9814 93° East 561 646 39,000  Level Chicago Center
05:53PM 42.6097 -86.7717 93° East 559 643 39,000  Level Chicago Center
05:54PM 42.6017 -86.5619 93° East 562 647 39,000  Level Chicago Center
05:55PM 42.5925 -86.3508 93° East 565 650 39,000  Level Chicago Center
05:56PM 42.5814 -86.0975 93° East 567 652 39,000  Level Chicago Center
05:57PM 42.5722 -85.8850 93° East 569 655 39,000  Level Chicago Center
05:58PM 42.5622 -85.6733 94° East 570 656 39,000  Level Chicago Center
05:59PM 42.5517 -85.4606 94° East 571 657 39,000  Level Chicago Center
06:00PM 42.5392 -85.2053 94° East 569 655 39,000  Level Chicago Center
06:01PM 42.5278 -84.9922 94° East 569 655 39,000  Level Chicago Center
06:02PM 42.5158 -84.7781 94° East 572 658 39,000  Level Chicago Center
06:03PM 42.5039 -84.5656 94° East 570 656 39,000  Level Chicago Center
06:04PM 42.4928 -84.3722 94° East 572 658 39,000  Level Cleveland Center
06:05PM 42.4756 -84.1150 95° East 572 658 39,000  Level Cleveland Center
06:06PM 42.4614 -83.9003 95° East 572 658 39,000  Level Cleveland Center
06:07PM 42.4469 -83.6842 95° East 573 659 39,000  Level Cleveland Center
06:08PM 42.4325 -83.4653 95° East 573 659 39,000  Level Cleveland Center
06:10PM 42.4156 -83.2306 96° East 571 657 39,000  Level Cleveland Center
06:11PM 42.4008 -83.0308 96° East 572 658 39,000  Level Cleveland Center
06:12PM 42.3847 -82.8164 96° East 571 657 39,000  Level Cleveland Center
06:13PM 42.3706 -82.6017 95° East 573 659 39,000  Level Cleveland Center
06:14PM 42.3644 -82.3894 92° East 567 652 39,000  Level Cleveland Center
06:15PM 42.3550 -82.1325 93° East 572 658 39,000  Level Cleveland Center
06:16PM 42.3461 -81.9344 93° East 569 655 39,000  Level Cleveland Center
06:17PM 42.3367 -81.7147 93° East 575 662 39,000  Level Cleveland Center
06:18PM 42.3242 -81.4633 94° East 570 656 39,000  Level Cleveland Center
06:19PM 42.3131 -81.2461 94° East 571 657 39,000  Level Cleveland Center
06:20PM 42.3031 -81.0297 94° East 573 659 39,000  Level Cleveland Center
06:21PM 42.2914 -80.8128 94° East 573 659 39,000  Level Cleveland Center
06:22PM 42.2806 -80.5983 94° East 568 654 39,000  Level Cleveland Center
06:23PM 42.2667 -80.3825 95° East 571 657 39,000  Level Cleveland Center
06:24PM 42.2433 -80.1675 98° East 573 659 39,000  Level Cleveland Center
06:25PM 42.2100 -79.9503 102° East 576 663 39,000  Level Cleveland Center
06:26PM 42.1761 -79.7431 102° East 573 659 39,000  Level Cleveland Center
06:27PM 42.1331 -79.4892 103° East 581 669 39,000  Level Cleveland Center
06:28PM 42.0969 -79.2806 103° East 576 663 39,000  Level Cleveland Center
06:29PM 42.0614 -79.0708 103° East 578 665 39,000  Level Cleveland Center
06:30PM 42.0239 -78.8608 103° East 578 665 39,000  Level Cleveland Center
06:31PM 41.9869 -78.6531 103° East 574 661 39,000  Level Cleveland Center
06:32PM 41.9422 -78.4031 103° East 574 661 39,000  Level Cleveland Center
06:33PM 41.9042 -78.1942 104° East 575 662 39,000  Level Cleveland Center
06:34PM 41.8669 -77.9858 103° East 575 662 39,000  Level Cleveland Center
06:35PM 41.8281 -77.7778 104° East 576 663 39,000  Level Cleveland Center
06:36PM 41.8078 -77.6833 106° East 583 671 39,000  Level New York Center
06:37PM 41.7633 -77.4728 106° East 583 671 39,000  Level New York Center
06:38PM 41.7103 -77.2703 109° East 578 665 39,000  Level New York Center
06:39PM 41.6564 -77.0706 110° East 578 665 39,000  Level New York Center
06:40PM 41.6003 -76.8683 110° East 578 665 39,000  Level New York Center
06:41PM 41.5478 -76.6694 109° East 578 665 39,000  Level New York Center
06:42PM 41.4875 -76.4536 110° East 578 665 39,000 -780 Level New York Center
06:43PM 41.4358 -76.2694 110° East 578 665 37,500 -1,980 Descending New York Center
06:44PM 41.3750 -76.0486 110° East 585 673 35,100 -2,580 Descending New York Center
06:45PM 41.3206 -75.8622 111° Southeast 566 651 32,400 -3,000 Descending New York Center
06:46PM 41.2661 -75.6703 111° Southeast 553 636 29,200 -3,300 Descending New York Center
06:47PM 41.2047 -75.4894 114° Southeast 543 625 25,800 -3,000 Descending New York Center
06:48PM 41.1469 -75.3172 114° Southeast 522 601 23,200 -1,440 Descending New York Center
06:49PM 41.0889 -75.1456 114° Southeast 511 588 23,000 -120 Descending New York Center
06:50PM 41.0306 -74.9739 114° Southeast 511 588 23,000 -60 Level New York Center
06:51PM 40.9906 -74.8067 108° East 519 597 22,900 -60 Descending New York Center
06:52PM 40.9675 -74.6211 99° East 519 597 22,900 -1,200 Level New York Center
06:53PM 40.9486 -74.4331 98° East 513 590 20,500 -1,980 Descending New York Center
06:54PM 40.9142 -74.2667 105° East 493 567 19,000 -1,200 Descending New York Center
06:55PM 40.8475 -74.1233 122° Southeast 446 513 18,100 -1,500 Descending New York Center
06:56PM 40.7372 -74.0439 151° Southeast 445 512 16,100 -2,400 Descending New York Center
06:57PM 40.6178 -73.9917 162° South 426 490 13,300 -1,980 Descending New York Center
06:58PM 40.5150 -73.9406 159° South 415 478 12,200 -1,320 Descending New York Center
06:59PM 40.4439 -73.8744 145° Southeast 358 412 10,700 -1,860 Descending New York Center
07:00PM 40.3897 -73.7903 130° Southeast 312 359 8,500 -2,400 Descending New York Center
07:01PM 40.3611 -73.6828 109° East 291 335 6,000 -2,220 Descending New York Center
07:02PM 40.3861 -73.6019 68° East 257 296 4,100 -1,020 Descending New York Center
07:03PM 40.4539 -73.5503 30° Northeast 241 277 4,000 -60 Descending New York Center
07:04PM 40.5111 -73.5089 29° Northeast 247 284 4,000  Level New York Center
07:05PM 40.5811 -73.4600 28° Northeast 258 297 4,000  Level New York Center
07:06PM 40.6383 -73.4183 29° Northeast 258 297 4,000  Level New York Center
07:07PM 40.7094 -73.4075 North 226 260 4,000 -240 Level New York Center
07:08PM 40.7500 -73.5000 300° West 213 245 3,500 -540 Descending New York TRACON
07:09PM 40.7667 -73.5667 288° West 185 213 2,900 -720 Descending New York TRACON
07:10PM 40.7833 -73.6333 288° West 184 212 2,100 -480 Descending New York TRACON
07:11PM 40.7500 -73.6833 229° Southwest 181 208 2,000 -360 Descending New York TRACON
07:12PM 40.7000 -73.7167 207° Southwest 141 162 1,400 -660 Descending New York TRACON
07:13PM 40.6667 -73.7333 201° Southwest 129 148 700 -720 Descending New York TRACON